sensor_id;sensor_type;location;lat;lon;timestamp;temperature;humidity
13960;DHT22;7052;51.050;3.716;2022-11-22T00:20:22;6.90;99.90
13960;DHT22;7052;51.050;3.716;2022-11-22T00:23:36;6.80;99.90
13960;DHT22;7052;51.050;3.716;2022-11-22T00:26:21;6.80;99.90
13960;DHT22;7052;51.050;3.716;2022-11-22T00:29:58;6.80;99.90
13960;DHT22;7052;51.050;3.716;2022-11-22T00:32:42;6.80;99.90
13960;DHT22;7052;51.050;3.716;2022-11-22T00:35:45;6.80;99.90
13960;DHT22;7052;51.050;3.716;2022-11-22T00:38:29;6.70;99.90
13960;DHT22;7052;51.050;3.716;2022-11-22T00:40:57;6.70;99.90
13960;DHT22;7052;51.050;3.716;2022-11-22T00:43:25;6.80;99.90
13960;DHT22;7052;51.050;3.716;2022-11-22T00:45:52;6.80;99.90
13960;DHT22;7052;51.050;3.716;2022-11-22T00:48:21;6.80;99.90
13960;DHT22;7052;51.050;3.716;2022-11-22T00:50:50;6.80;99.90
13960;DHT22;7052;51.050;3.716;2022-11-22T00:53:21;6.80;99.90
13960;DHT22;7052;51.050;3.716;2022-11-22T00:55:52;6.90;99.90
13960;DHT22;7052;51.050;3.716;2022-11-22T00:58:21;7.00;99.90
13960;DHT22;7052;51.050;3.716;2022-11-22T01:00:54;7.00;99.90
13960;DHT22;7052;51.050;3.716;2022-11-22T01:03:24;7.00;99.90
13960;DHT22;7052;51.050;3.716;2022-11-22T01:05:56;7.00;99.90
13960;DHT22;7052;51.050;3.716;2022-11-22T01:08:29;7.00;99.90
13960;DHT22;7052;51.050;3.716;2022-11-22T01:10:58;6.90;99.90
13960;DHT22;7052;51.050;3.716;2022-11-22T01:13:40;6.80;99.90
13960;DHT22;7052;51.050;3.716;2022-11-22T01:16:10;6.80;99.90
13960;DHT22;7052;51.050;3.716;2022-11-22T01:18:41;6.70;99.90
13960;DHT22;7052;51.050;3.716;2022-11-22T01:21:21;6.70;99.90
13960;DHT22;7052;51.050;3.716;2022-11-22T01:24:04;6.60;99.90
13960;DHT22;7052;51.050;3.716;2022-11-22T01:26:55;6.50;99.90
13960;DHT22;7052;51.050;3.716;2022-11-22T01:29:22;6.50;99.90
13960;DHT22;7052;51.050;3.716;2022-11-22T01:31:49;6.40;99.90
13960;DHT22;7052;51.050;3.716;2022-11-22T01:34:16;6.40;99.90
13960;DHT22;7052;51.050;3.716;2022-11-22T01:36:46;6.40;99.90
13960;DHT22;7052;51.050;3.716;2022-11-22T01:39:25;6.40;99.90
13960;DHT22;7052;51.050;3.716;2022-11-22T01:42:07;6.30;99.90
13960;DHT22;7052;51.050;3.716;2022-11-22T01:44:47;6.30;99.90
13960;DHT22;7052;51.050;3.716;2022-11-22T01:47:29;6.30;99.90
13960;DHT22;7052;51.050;3.716;2022-11-22T01:50:24;6.30;99.90
13960;DHT22;7052;51.050;3.716;2022-11-22T01:53:12;6.20;99.90
13960;DHT22;7052;51.050;3.716;2022-11-22T01:55:57;6.20;99.90
13960;DHT22;7052;51.050;3.716;2022-11-22T01:59:05;6.20;99.90
13960;DHT22;7052;51.050;3.716;2022-11-22T02:01:50;6.20;99.90
13960;DHT22;7052;51.050;3.716;2022-11-22T02:04:27;6.20;99.90
13960;DHT22;7052;51.050;3.716;2022-11-22T02:07:38;6.10;99.90
13960;DHT22;7052;51.050;3.716;2022-11-22T02:13:46;6.10;99.90
13960;DHT22;7052;51.050;3.716;2022-11-22T02:16:35;6.10;99.90
13960;DHT22;7052;51.050;3.716;2022-11-22T02:19:15;6.10;99.90
13960;DHT22;7052;51.050;3.716;2022-11-22T02:21:52;6.10;99.90
13960;DHT22;7052;51.050;3.716;2022-11-22T02:24:26;6.10;99.90
13960;DHT22;7052;51.050;3.716;2022-11-22T02:26:59;6.10;99.90
13960;DHT22;7052;51.050;3.716;2022-11-22T02:29:28;6.10;99.90
13960;DHT22;7052;51.050;3.716;2022-11-22T02:32:00;6.10;99.90
13960;DHT22;7052;51.050;3.716;2022-11-22T02:34:39;6.10;99.90
13960;DHT22;7052;51.050;3.716;2022-11-22T02:37:08;6.10;99.90
13960;DHT22;7052;51.050;3.716;2022-11-22T02:39:36;6.00;99.90
13960;DHT22;7052;51.050;3.716;2022-11-22T02:42:16;6.00;99.90
13960;DHT22;7052;51.050;3.716;2022-11-22T02:44:45;6.00;99.90
13960;DHT22;7052;51.050;3.716;2022-11-22T02:47:13;5.90;99.90
13960;DHT22;7052;51.050;3.716;2022-11-22T02:49:42;5.90;99.90
13960;DHT22;7052;51.050;3.716;2022-11-22T02:52:17;5.90;99.90
13960;DHT22;7052;51.050;3.716;2022-11-22T02:54:45;5.90;99.90
13960;DHT22;7052;51.050;3.716;2022-11-22T02:57:16;5.90;99.90
13960;DHT22;7052;51.050;3.716;2022-11-22T02:59:46;5.90;99.90
13960;DHT22;7052;51.050;3.716;2022-11-22T03:02:14;5.90;99.90
13960;DHT22;7052;51.050;3.716;2022-11-22T03:04:41;5.80;99.90
13960;DHT22;7052;51.050;3.716;2022-11-22T03:07:13;5.80;99.90
13960;DHT22;7052;51.050;3.716;2022-11-22T03:09:42;5.80;99.90
13960;DHT22;7052;51.050;3.716;2022-11-22T03:12:14;5.80;99.90
13960;DHT22;7052;51.050;3.716;2022-11-22T03:14:44;5.70;99.90
13960;DHT22;7052;51.050;3.716;2022-11-22T03:17:29;5.80;99.90
13960;DHT22;7052;51.050;3.716;2022-11-22T03:19:57;5.70;99.90
13960;DHT22;7052;51.050;3.716;2022-11-22T03:22:26;5.70;99.90
13960;DHT22;7052;51.050;3.716;2022-11-22T03:24:56;5.70;99.90
13960;DHT22;7052;51.050;3.716;2022-11-22T03:27:23;5.70;99.90
13960;DHT22;7052;51.050;3.716;2022-11-22T03:29:52;5.60;99.90
13960;DHT22;7052;51.050;3.716;2022-11-22T03:32:19;5.60;99.90
13960;DHT22;7052;51.050;3.716;2022-11-22T03:34:51;5.60;99.90
13960;DHT22;7052;51.050;3.716;2022-11-22T03:37:20;5.60;99.90
13960;DHT22;7052;51.050;3.716;2022-11-22T03:39:48;5.60;99.90
13960;DHT22;7052;51.050;3.716;2022-11-22T03:42:21;5.60;99.90
13960;DHT22;7052;51.050;3.716;2022-11-22T03:45:00;5.60;99.90
13960;DHT22;7052;51.050;3.716;2022-11-22T03:47:29;5.60;99.90
13960;DHT22;7052;51.050;3.716;2022-11-22T03:49:58;5.60;99.90
13960;DHT22;7052;51.050;3.716;2022-11-22T03:52:27;5.60;99.90
13960;DHT22;7052;51.050;3.716;2022-11-22T03:54:55;5.60;99.90
13960;DHT22;7052;51.050;3.716;2022-11-22T03:57:24;5.60;99.90
13960;DHT22;7052;51.050;3.716;2022-11-22T03:59:56;5.50;99.90
13960;DHT22;7052;51.050;3.716;2022-11-22T04:02:25;5.50;99.90
13960;DHT22;7052;51.050;3.716;2022-11-22T04:04:56;5.60;99.90
13960;DHT22;7052;51.050;3.716;2022-11-22T04:07:29;5.50;99.90
13960;DHT22;7052;51.050;3.716;2022-11-22T04:10:16;5.50;99.90
13960;DHT22;7052;51.050;3.716;2022-11-22T04:12:55;5.50;99.90
13960;DHT22;7052;51.050;3.716;2022-11-22T04:15:27;5.50;99.90
13960;DHT22;7052;51.050;3.716;2022-11-22T04:17:53;5.60;99.90
13960;DHT22;7052;51.050;3.716;2022-11-22T04:20:25;5.50;99.90
13960;DHT22;7052;51.050;3.716;2022-11-22T04:23:11;5.50;99.90
13960;DHT22;7052;51.050;3.716;2022-11-22T04:25:45;5.50;99.90
13960;DHT22;7052;51.050;3.716;2022-11-22T04:28:14;5.40;99.90
13960;DHT22;7052;51.050;3.716;2022-11-22T04:30:44;5.40;99.90
13960;DHT22;7052;51.050;3.716;2022-11-22T04:33:28;5.40;99.90
13960;DHT22;7052;51.050;3.716;2022-11-22T04:35:56;5.40;99.90
13960;DHT22;7052;51.050;3.716;2022-11-22T04:38:26;5.40;99.90
13960;DHT22;7052;51.050;3.716;2022-11-22T04:40:53;5.40;99.90
13960;DHT22;7052;51.050;3.716;2022-11-22T04:43:24;5.40;99.90
13960;DHT22;7052;51.050;3.716;2022-11-22T04:46:13;5.50;99.90
13960;DHT22;7052;51.050;3.716;2022-11-22T04:48:42;5.50;99.90
13960;DHT22;7052;51.050;3.716;2022-11-22T04:51:16;5.50;99.90
13960;DHT22;7052;51.050;3.716;2022-11-22T04:54:00;5.50;99.90
13960;DHT22;7052;51.050;3.716;2022-11-22T04:56:29;5.60;99.90
13960;DHT22;7052;51.050;3.716;2022-11-22T04:58:59;5.60;99.90
13960;DHT22;7052;51.050;3.716;2022-11-22T05:01:28;5.70;99.90
13960;DHT22;7052;51.050;3.716;2022-11-22T05:04:00;5.70;99.90
13960;DHT22;7052;51.050;3.716;2022-11-22T05:06:33;5.70;99.90
13960;DHT22;7052;51.050;3.716;2022-11-22T05:09:05;5.70;99.90
13960;DHT22;7052;51.050;3.716;2022-11-22T05:11:34;5.80;99.90
13960;DHT22;7052;51.050;3.716;2022-11-22T05:14:02;5.80;99.90
13960;DHT22;7052;51.050;3.716;2022-11-22T05:16:51;5.80;99.90
13960;DHT22;7052;51.050;3.716;2022-11-22T05:19:35;5.90;99.90
13960;DHT22;7052;51.050;3.716;2022-11-22T05:22:03;5.80;99.90
13960;DHT22;7052;51.050;3.716;2022-11-22T05:24:30;5.90;99.90
13960;DHT22;7052;51.050;3.716;2022-11-22T05:26:57;5.90;99.90
13960;DHT22;7052;51.050;3.716;2022-11-22T05:29:26;5.90;99.90
13960;DHT22;7052;51.050;3.716;2022-11-22T05:32:00;5.90;99.90
13960;DHT22;7052;51.050;3.716;2022-11-22T05:34:28;6.00;99.90
13960;DHT22;7052;51.050;3.716;2022-11-22T05:36:58;5.90;99.90
13960;DHT22;7052;51.050;3.716;2022-11-22T05:39:27;6.00;99.90
13960;DHT22;7052;51.050;3.716;2022-11-22T05:41:55;6.00;99.90
13960;DHT22;7052;51.050;3.716;2022-11-22T05:44:22;6.00;99.90
13960;DHT22;7052;51.050;3.716;2022-11-22T05:46:50;6.00;99.90
13960;DHT22;7052;51.050;3.716;2022-11-22T05:49:19;6.00;99.90
13960;DHT22;7052;51.050;3.716;2022-11-22T05:51:47;6.00;99.90
13960;DHT22;7052;51.050;3.716;2022-11-22T05:54:18;6.00;99.90
13960;DHT22;7052;51.050;3.716;2022-11-22T05:56:45;6.10;99.90
13960;DHT22;7052;51.050;3.716;2022-11-22T05:59:15;6.00;99.90
13960;DHT22;7052;51.050;3.716;2022-11-22T06:01:45;6.00;99.90
13960;DHT22;7052;51.050;3.716;2022-11-22T06:04:13;6.00;99.90
13960;DHT22;7052;51.050;3.716;2022-11-22T06:06:48;6.00;99.90
13960;DHT22;7052;51.050;3.716;2022-11-22T06:09:15;6.00;99.90
13960;DHT22;7052;51.050;3.716;2022-11-22T06:11:43;6.10;99.90
13960;DHT22;7052;51.050;3.716;2022-11-22T06:14:10;6.10;99.90
13960;DHT22;7052;51.050;3.716;2022-11-22T06:16:38;6.10;99.90
13960;DHT22;7052;51.050;3.716;2022-11-22T06:19:08;6.10;99.90
13960;DHT22;7052;51.050;3.716;2022-11-22T06:21:39;6.20;99.90
13960;DHT22;7052;51.050;3.716;2022-11-22T06:24:09;6.20;99.90
13960;DHT22;7052;51.050;3.716;2022-11-22T06:26:36;6.20;99.90
13960;DHT22;7052;51.050;3.716;2022-11-22T06:29:04;6.20;99.90
13960;DHT22;7052;51.050;3.716;2022-11-22T06:31:33;6.30;99.90
13960;DHT22;7052;51.050;3.716;2022-11-22T06:34:03;6.20;99.90
13960;DHT22;7052;51.050;3.716;2022-11-22T06:36:32;6.30;99.90
13960;DHT22;7052;51.050;3.716;2022-11-22T06:39:02;6.20;99.90
13960;DHT22;7052;51.050;3.716;2022-11-22T06:41:34;6.20;99.90
13960;DHT22;7052;51.050;3.716;2022-11-22T06:44:04;6.20;99.90
13960;DHT22;7052;51.050;3.716;2022-11-22T06:46:32;6.20;99.90
13960;DHT22;7052;51.050;3.716;2022-11-22T06:49:04;6.20;99.90
13960;DHT22;7052;51.050;3.716;2022-11-22T06:51:33;6.20;99.90
13960;DHT22;7052;51.050;3.716;2022-11-22T06:54:03;6.10;99.90
13960;DHT22;7052;51.050;3.716;2022-11-22T06:56:36;6.20;99.90
13960;DHT22;7052;51.050;3.716;2022-11-22T06:59:04;6.20;99.90
13960;DHT22;7052;51.050;3.716;2022-11-22T07:01:37;6.20;99.90
13960;DHT22;7052;51.050;3.716;2022-11-22T07:04:08;6.20;99.90
13960;DHT22;7052;51.050;3.716;2022-11-22T07:06:38;6.20;99.90
13960;DHT22;7052;51.050;3.716;2022-11-22T07:09:26;6.20;99.90
13960;DHT22;7052;51.050;3.716;2022-11-22T07:12:12;6.30;99.90
13960;DHT22;7052;51.050;3.716;2022-11-22T07:14:40;6.30;99.90
13960;DHT22;7052;51.050;3.716;2022-11-22T07:17:06;6.30;99.90
13960;DHT22;7052;51.050;3.716;2022-11-22T07:19:34;6.30;99.90
13960;DHT22;7052;51.050;3.716;2022-11-22T07:22:03;6.30;99.90
13960;DHT22;7052;51.050;3.716;2022-11-22T07:24:38;6.30;99.90
13960;DHT22;7052;51.050;3.716;2022-11-22T07:27:05;6.30;99.90
13960;DHT22;7052;51.050;3.716;2022-11-22T07:29:34;6.30;99.90
13960;DHT22;7052;51.050;3.716;2022-11-22T07:32:02;6.30;99.90
13960;DHT22;7052;51.050;3.716;2022-11-22T07:34:28;6.30;99.90
13960;DHT22;7052;51.050;3.716;2022-11-22T07:36:59;6.40;99.90
13960;DHT22;7052;51.050;3.716;2022-11-22T07:39:27;6.60;99.90
13960;DHT22;7052;51.050;3.716;2022-11-22T07:41:57;6.40;99.90
13960;DHT22;7052;51.050;3.716;2022-11-22T07:44:24;6.40;99.90
13960;DHT22;7052;51.050;3.716;2022-11-22T07:46:57;6.50;99.90
13960;DHT22;7052;51.050;3.716;2022-11-22T07:49:24;6.50;99.90
13960;DHT22;7052;51.050;3.716;2022-11-22T07:51:52;6.50;99.90
13960;DHT22;7052;51.050;3.716;2022-11-22T07:54:19;6.40;99.90
13960;DHT22;7052;51.050;3.716;2022-11-22T07:56:49;6.60;99.90
13960;DHT22;7052;51.050;3.716;2022-11-22T07:59:18;6.40;99.90
13960;DHT22;7052;51.050;3.716;2022-11-22T08:01:45;6.50;99.90
13960;DHT22;7052;51.050;3.716;2022-11-22T08:04:18;6.40;99.90
13960;DHT22;7052;51.050;3.716;2022-11-22T08:06:45;6.40;99.90
13960;DHT22;7052;51.050;3.716;2022-11-22T08:09:13;6.50;99.90
13960;DHT22;7052;51.050;3.716;2022-11-22T08:11:43;6.50;99.90
13960;DHT22;7052;51.050;3.716;2022-11-22T08:14:10;6.50;99.90
13960;DHT22;7052;51.050;3.716;2022-11-22T08:16:42;6.60;99.90
13960;DHT22;7052;51.050;3.716;2022-11-22T08:19:14;6.60;99.90
13960;DHT22;7052;51.050;3.716;2022-11-22T08:21:42;6.70;99.90
13960;DHT22;7052;51.050;3.716;2022-11-22T08:24:12;6.70;99.90
13960;DHT22;7052;51.050;3.716;2022-11-22T08:26:39;6.80;99.90
13960;DHT22;7052;51.050;3.716;2022-11-22T08:29:11;6.80;99.90
13960;DHT22;7052;51.050;3.716;2022-11-22T08:31:41;6.90;99.90
13960;DHT22;7052;51.050;3.716;2022-11-22T08:34:21;7.00;99.90
13960;DHT22;7052;51.050;3.716;2022-11-22T08:36:49;6.90;99.90
13960;DHT22;7052;51.050;3.716;2022-11-22T08:39:19;7.00;99.90
13960;DHT22;7052;51.050;3.716;2022-11-22T08:41:47;7.00;99.90
13960;DHT22;7052;51.050;3.716;2022-11-22T08:44:13;7.00;99.90
13960;DHT22;7052;51.050;3.716;2022-11-22T08:46:40;6.90;99.90
13960;DHT22;7052;51.050;3.716;2022-11-22T08:49:09;7.00;99.90
13960;DHT22;7052;51.050;3.716;2022-11-22T08:51:38;7.10;99.90
13960;DHT22;7052;51.050;3.716;2022-11-22T08:54:13;7.10;99.90
13960;DHT22;7052;51.050;3.716;2022-11-22T08:56:43;7.20;99.90
13960;DHT22;7052;51.050;3.716;2022-11-22T08:59:19;7.20;99.90
13960;DHT22;7052;51.050;3.716;2022-11-22T09:01:46;7.20;99.90
13960;DHT22;7052;51.050;3.716;2022-11-22T09:04:15;7.30;99.90
13960;DHT22;7052;51.050;3.716;2022-11-22T09:06:57;7.30;99.90
13960;DHT22;7052;51.050;3.716;2022-11-22T09:09:25;7.30;99.90
13960;DHT22;7052;51.050;3.716;2022-11-22T09:11:52;7.40;99.90
13960;DHT22;7052;51.050;3.716;2022-11-22T09:14:20;7.40;99.90
13960;DHT22;7052;51.050;3.716;2022-11-22T09:16:51;7.50;99.90
13960;DHT22;7052;51.050;3.716;2022-11-22T09:19:19;7.60;99.90
13960;DHT22;7052;51.050;3.716;2022-11-22T09:21:48;7.70;99.90
13960;DHT22;7052;51.050;3.716;2022-11-22T09:24:16;7.70;99.90
13960;DHT22;7052;51.050;3.716;2022-11-22T09:26:44;7.70;99.90
13960;DHT22;7052;51.050;3.716;2022-11-22T09:29:11;7.80;99.90
13960;DHT22;7052;51.050;3.716;2022-11-22T09:31:47;7.70;99.90
13960;DHT22;7052;51.050;3.716;2022-11-22T09:34:17;7.60;99.90
13960;DHT22;7052;51.050;3.716;2022-11-22T09:36:44;7.70;99.90
13960;DHT22;7052;51.050;3.716;2022-11-22T09:39:13;7.70;99.90
13960;DHT22;7052;51.050;3.716;2022-11-22T09:42:14;7.70;99.90
13960;DHT22;7052;51.050;3.716;2022-11-22T09:47:50;7.80;99.90
13960;DHT22;7052;51.050;3.716;2022-11-22T09:50:26;7.80;99.90
13960;DHT22;7052;51.050;3.716;2022-11-22T09:53:03;7.90;99.90
13960;DHT22;7052;51.050;3.716;2022-11-22T09:55:37;8.00;99.90
13960;DHT22;7052;51.050;3.716;2022-11-22T09:58:18;8.10;99.90
13960;DHT22;7052;51.050;3.716;2022-11-22T10:00:49;8.20;99.90
13960;DHT22;7052;51.050;3.716;2022-11-22T10:03:25;8.20;99.90
13960;DHT22;7052;51.050;3.716;2022-11-22T10:06:07;8.20;99.90
13960;DHT22;7052;51.050;3.716;2022-11-22T10:08:42;8.20;99.90
13960;DHT22;7052;51.050;3.716;2022-11-22T10:11:23;8.20;99.90
13960;DHT22;7052;51.050;3.716;2022-11-22T10:13:54;8.30;99.90
13960;DHT22;7052;51.050;3.716;2022-11-22T10:16:28;8.30;99.90
13960;DHT22;7052;51.050;3.716;2022-11-22T10:19:01;8.20;99.90
13960;DHT22;7052;51.050;3.716;2022-11-22T10:21:32;8.20;99.90
13960;DHT22;7052;51.050;3.716;2022-11-22T10:23:59;8.20;99.90
13960;DHT22;7052;51.050;3.716;2022-11-22T10:26:32;8.20;99.90
13960;DHT22;7052;51.050;3.716;2022-11-22T10:29:07;8.10;99.90
13960;DHT22;7052;51.050;3.716;2022-11-22T10:31:44;8.10;99.90
13960;DHT22;7052;51.050;3.716;2022-11-22T10:34:19;8.10;99.90
13960;DHT22;7052;51.050;3.716;2022-11-22T10:36:53;8.10;99.90
13960;DHT22;7052;51.050;3.716;2022-11-22T10:39:34;8.10;99.90
13960;DHT22;7052;51.050;3.716;2022-11-22T10:42:19;8.10;99.90
13960;DHT22;7052;51.050;3.716;2022-11-22T10:44:58;8.10;99.90
13960;DHT22;7052;51.050;3.716;2022-11-22T10:47:47;8.10;99.90
13960;DHT22;7052;51.050;3.716;2022-11-22T10:50:21;8.10;99.90
13960;DHT22;7052;51.050;3.716;2022-11-22T10:52:59;8.10;99.90
13960;DHT22;7052;51.050;3.716;2022-11-22T10:55:40;8.10;99.90
13960;DHT22;7052;51.050;3.716;2022-11-22T10:58:29;8.20;99.90
13960;DHT22;7052;51.050;3.716;2022-11-22T11:01:04;8.10;99.90
13960;DHT22;7052;51.050;3.716;2022-11-22T11:03:33;8.20;99.90
13960;DHT22;7052;51.050;3.716;2022-11-22T11:06:09;8.20;99.90
13960;DHT22;7052;51.050;3.716;2022-11-22T11:08:41;8.20;99.90
13960;DHT22;7052;51.050;3.716;2022-11-22T11:11:09;8.20;99.90
13960;DHT22;7052;51.050;3.716;2022-11-22T11:13:43;8.20;99.90
13960;DHT22;7052;51.050;3.716;2022-11-22T11:16:16;8.20;99.90
13960;DHT22;7052;51.050;3.716;2022-11-22T11:18:52;8.30;99.90
13960;DHT22;7052;51.050;3.716;2022-11-22T11:21:22;8.40;99.90
13960;DHT22;7052;51.050;3.716;2022-11-22T11:23:53;8.40;99.90
13960;DHT22;7052;51.050;3.716;2022-11-22T11:26:24;8.50;99.90
13960;DHT22;7052;51.050;3.716;2022-11-22T11:29:32;8.50;99.90
13960;DHT22;7052;51.050;3.716;2022-11-22T11:32:07;8.60;99.90
13960;DHT22;7052;51.050;3.716;2022-11-22T11:34:39;8.70;99.90
13960;DHT22;7052;51.050;3.716;2022-11-22T11:40:02;8.70;99.90
13960;DHT22;7052;51.050;3.716;2022-11-22T11:42:32;8.80;99.90
13960;DHT22;7052;51.050;3.716;2022-11-22T11:45:25;8.80;99.90
13960;DHT22;7052;51.050;3.716;2022-11-22T11:47:53;8.90;99.90
13960;DHT22;7052;51.050;3.716;2022-11-22T11:50:23;8.80;99.90
13960;DHT22;7052;51.050;3.716;2022-11-22T11:52:52;8.80;99.90
13960;DHT22;7052;51.050;3.716;2022-11-22T11:55:20;9.00;99.90
13960;DHT22;7052;51.050;3.716;2022-11-22T11:57:48;8.90;99.90
13960;DHT22;7052;51.050;3.716;2022-11-22T12:00:26;8.90;99.90
13960;DHT22;7052;51.050;3.716;2022-11-22T12:03:05;8.90;99.90
13960;DHT22;7052;51.050;3.716;2022-11-22T12:05:34;9.00;99.90
13960;DHT22;7052;51.050;3.716;2022-11-22T12:08:01;9.10;99.90
13960;DHT22;7052;51.050;3.716;2022-11-22T12:10:37;9.10;99.90
13960;DHT22;7052;51.050;3.716;2022-11-22T12:13:14;9.10;99.90
13960;DHT22;7052;51.050;3.716;2022-11-22T12:15:52;9.20;99.90
13960;DHT22;7052;51.050;3.716;2022-11-22T12:18:31;9.20;99.90
13960;DHT22;7052;51.050;3.716;2022-11-22T12:21:11;9.20;99.90
13960;DHT22;7052;51.050;3.716;2022-11-22T12:23:46;9.20;99.90
13960;DHT22;7052;51.050;3.716;2022-11-22T12:26:19;9.00;99.90
13960;DHT22;7052;51.050;3.716;2022-11-22T12:28:47;9.10;99.90
13960;DHT22;7052;51.050;3.716;2022-11-22T12:31:34;9.20;99.90
13960;DHT22;7052;51.050;3.716;2022-11-22T12:34:10;9.10;99.90
13960;DHT22;7052;51.050;3.716;2022-11-22T12:36:43;9.10;99.90
13960;DHT22;7052;51.050;3.716;2022-11-22T12:39:17;9.10;99.90
13960;DHT22;7052;51.050;3.716;2022-11-22T12:41:47;9.10;99.90
13960;DHT22;7052;51.050;3.716;2022-11-22T12:44:18;9.10;99.90
13960;DHT22;7052;51.050;3.716;2022-11-22T12:46:54;9.10;99.90
13960;DHT22;7052;51.050;3.716;2022-11-22T12:49:31;9.00;99.90
13960;DHT22;7052;51.050;3.716;2022-11-22T12:52:08;9.00;99.90
13960;DHT22;7052;51.050;3.716;2022-11-22T12:54:54;9.10;99.90
13960;DHT22;7052;51.050;3.716;2022-11-22T12:57:31;9.10;99.90
13960;DHT22;7052;51.050;3.716;2022-11-22T13:00:04;9.10;99.90
13960;DHT22;7052;51.050;3.716;2022-11-22T13:02:39;9.10;99.90
13960;DHT22;7052;51.050;3.716;2022-11-22T13:05:14;9.20;99.90
13960;DHT22;7052;51.050;3.716;2022-11-22T13:08:02;9.20;99.90
13960;DHT22;7052;51.050;3.716;2022-11-22T13:10:36;9.30;99.90
13960;DHT22;7052;51.050;3.716;2022-11-22T13:13:11;9.40;99.90
13960;DHT22;7052;51.050;3.716;2022-11-22T13:15:44;9.40;99.90
13960;DHT22;7052;51.050;3.716;2022-11-22T13:18:16;9.50;99.90
13960;DHT22;7052;51.050;3.716;2022-11-22T13:20:51;9.50;99.90
13960;DHT22;7052;51.050;3.716;2022-11-22T13:23:43;9.50;99.90
13960;DHT22;7052;51.050;3.716;2022-11-22T13:26:20;9.50;99.90
13960;DHT22;7052;51.050;3.716;2022-11-22T13:28:54;9.60;99.90
13960;DHT22;7052;51.050;3.716;2022-11-22T13:31:22;9.60;99.90
13960;DHT22;7052;51.050;3.716;2022-11-22T13:33:54;9.70;99.90
13960;DHT22;7052;51.050;3.716;2022-11-22T13:36:37;9.70;99.90
13960;DHT22;7052;51.050;3.716;2022-11-22T13:39:11;9.70;99.90
13960;DHT22;7052;51.050;3.716;2022-11-22T13:42:02;9.80;99.90
13960;DHT22;7052;51.050;3.716;2022-11-22T13:44:36;9.90;99.90
13960;DHT22;7052;51.050;3.716;2022-11-22T13:47:33;9.90;99.90
13960;DHT22;7052;51.050;3.716;2022-11-22T13:53:31;9.80;99.90
13960;DHT22;7052;51.050;3.716;2022-11-22T13:56:47;9.70;99.90
13960;DHT22;7052;51.050;3.716;2022-11-22T13:59:25;9.70;99.90
13960;DHT22;7052;51.050;3.716;2022-11-22T14:01:57;9.60;99.90
13960;DHT22;7052;51.050;3.716;2022-11-22T14:04:43;9.80;99.90
13960;DHT22;7052;51.050;3.716;2022-11-22T14:07:26;9.50;99.90
13960;DHT22;7052;51.050;3.716;2022-11-22T14:09:59;9.60;99.90
13960;DHT22;7052;51.050;3.716;2022-11-22T14:12:53;9.50;99.90
13960;DHT22;7052;51.050;3.716;2022-11-22T14:15:56;9.70;99.90
13960;DHT22;7052;51.050;3.716;2022-11-22T14:18:43;9.40;99.90
13960;DHT22;7052;51.050;3.716;2022-11-22T14:21:16;9.50;99.90
13960;DHT22;7052;51.050;3.716;2022-11-22T14:23:57;9.60;99.90
13960;DHT22;7052;51.050;3.716;2022-11-22T14:26:34;9.60;99.90
13960;DHT22;7052;51.050;3.716;2022-11-22T14:29:47;9.70;99.90
13960;DHT22;7052;51.050;3.716;2022-11-22T14:32:21;9.80;99.90
13960;DHT22;7052;51.050;3.716;2022-11-22T14:35:20;9.90;99.90
13960;DHT22;7052;51.050;3.716;2022-11-22T14:41:38;9.90;99.90
13960;DHT22;7052;51.050;3.716;2022-11-22T14:44:09;9.80;99.90
13960;DHT22;7052;51.050;3.716;2022-11-22T14:46:45;9.80;99.90
13960;DHT22;7052;51.050;3.716;2022-11-22T14:49:16;9.70;99.90
13960;DHT22;7052;51.050;3.716;2022-11-22T14:52:10;9.70;99.90
13960;DHT22;7052;51.050;3.716;2022-11-22T14:54:44;9.70;99.90
13960;DHT22;7052;51.050;3.716;2022-11-22T14:57:17;9.70;99.90
13960;DHT22;7052;51.050;3.716;2022-11-22T15:00:05;9.70;99.90
13960;DHT22;7052;51.050;3.716;2022-11-22T15:03:15;9.60;99.90
13960;DHT22;7052;51.050;3.716;2022-11-22T15:06:21;9.60;99.90
13960;DHT22;7052;51.050;3.716;2022-11-22T15:09:00;9.50;99.90
13960;DHT22;7052;51.050;3.716;2022-11-22T15:17:27;9.20;99.90
13960;DHT22;7052;51.050;3.716;2022-11-22T15:19:55;9.10;99.90
13960;DHT22;7052;51.050;3.716;2022-11-22T15:22:26;9.00;99.90
13960;DHT22;7052;51.050;3.716;2022-11-22T15:24:56;9.00;99.90
13960;DHT22;7052;51.050;3.716;2022-11-22T15:27:27;9.00;99.90
13960;DHT22;7052;51.050;3.716;2022-11-22T15:30:13;8.90;99.90
13960;DHT22;7052;51.050;3.716;2022-11-22T15:32:42;8.90;99.90
13960;DHT22;7052;51.050;3.716;2022-11-22T15:35:13;8.90;99.90
13960;DHT22;7052;51.050;3.716;2022-11-22T15:37:52;8.90;99.90
13960;DHT22;7052;51.050;3.716;2022-11-22T15:40:21;8.90;99.90
13960;DHT22;7052;51.050;3.716;2022-11-22T15:42:52;9.00;99.90
13960;DHT22;7052;51.050;3.716;2022-11-22T15:45:23;8.90;99.90
13960;DHT22;7052;51.050;3.716;2022-11-22T15:47:55;8.90;99.90
13960;DHT22;7052;51.050;3.716;2022-11-22T15:50:23;8.90;99.90
13960;DHT22;7052;51.050;3.716;2022-11-22T15:52:54;8.90;99.90
13960;DHT22;7052;51.050;3.716;2022-11-22T15:55:27;8.80;99.90
13960;DHT22;7052;51.050;3.716;2022-11-22T15:57:56;8.70;99.90
13960;DHT22;7052;51.050;3.716;2022-11-22T16:00:30;8.70;99.90
13960;DHT22;7052;51.050;3.716;2022-11-22T16:03:00;8.70;99.90
13960;DHT22;7052;51.050;3.716;2022-11-22T16:05:32;8.70;99.90
13960;DHT22;7052;51.050;3.716;2022-11-22T16:08:06;8.70;99.90
13960;DHT22;7052;51.050;3.716;2022-11-22T16:10:41;8.70;99.90
13960;DHT22;7052;51.050;3.716;2022-11-22T16:13:11;8.70;99.90
13960;DHT22;7052;51.050;3.716;2022-11-22T16:16:06;8.80;99.90
13960;DHT22;7052;51.050;3.716;2022-11-22T16:18:36;8.90;99.90
13960;DHT22;7052;51.050;3.716;2022-11-22T16:21:17;8.90;99.90
13960;DHT22;7052;51.050;3.716;2022-11-22T16:24:15;8.90;99.90
13960;DHT22;7052;51.050;3.716;2022-11-22T16:26:53;8.90;99.90
13960;DHT22;7052;51.050;3.716;2022-11-22T16:29:26;8.90;99.90
13960;DHT22;7052;51.050;3.716;2022-11-22T16:32:02;9.00;99.90
13960;DHT22;7052;51.050;3.716;2022-11-22T16:34:32;9.00;99.90
13960;DHT22;7052;51.050;3.716;2022-11-22T16:37:23;9.00;99.90
13960;DHT22;7052;51.050;3.716;2022-11-22T16:39:52;9.00;99.90
13960;DHT22;7052;51.050;3.716;2022-11-22T16:42:23;9.00;99.90
13960;DHT22;7052;51.050;3.716;2022-11-22T16:44:51;9.00;99.90
13960;DHT22;7052;51.050;3.716;2022-11-22T16:47:20;9.20;99.90
13960;DHT22;7052;51.050;3.716;2022-11-22T16:49:51;9.00;99.90
13960;DHT22;7052;51.050;3.716;2022-11-22T16:52:19;9.00;99.90
13960;DHT22;7052;51.050;3.716;2022-11-22T16:54:49;9.00;99.90
13960;DHT22;7052;51.050;3.716;2022-11-22T16:57:16;9.10;99.90
13960;DHT22;7052;51.050;3.716;2022-11-22T16:59:53;9.10;99.90
13960;DHT22;7052;51.050;3.716;2022-11-22T17:02:29;9.00;99.90
13960;DHT22;7052;51.050;3.716;2022-11-22T17:04:57;9.00;99.90
13960;DHT22;7052;51.050;3.716;2022-11-22T17:07:25;9.10;99.90
13960;DHT22;7052;51.050;3.716;2022-11-22T17:09:53;9.20;99.90
13960;DHT22;7052;51.050;3.716;2022-11-22T17:12:23;9.00;99.90
13960;DHT22;7052;51.050;3.716;2022-11-22T17:14:53;9.00;99.90
13960;DHT22;7052;51.050;3.716;2022-11-22T17:17:23;9.00;99.90
13960;DHT22;7052;51.050;3.716;2022-11-22T17:20:01;9.00;99.90
13960;DHT22;7052;51.050;3.716;2022-11-22T17:22:34;9.10;99.90
13960;DHT22;7052;51.050;3.716;2022-11-22T17:25:13;9.30;99.90
13960;DHT22;7052;51.050;3.716;2022-11-22T17:27:58;9.10;99.90
13960;DHT22;7052;51.050;3.716;2022-11-22T17:30:26;9.10;99.90